Time;durP1;ratioP1;P1;durP2;ratioP2;P2;SDS_P1;SDS_P2;PMS_P1;PMS_P2;Temp;Humidity;BMP_temperature;BMP_pressure;BME280_temperature;BME280_humidity;BME280_pressure;Samples;Min_cycle;Max_cycle;Signal;HPM_P1;HPM_P2
2022/10/06 00:01:45;;;;;;;4.60;1.42;;;13.30;99.90;;;;;;5056691;28;20059;-68
2022/10/06 00:04:11;;;;;;;6.35;1.45;;;13.30;99.90;;;;;;5039379;28;20471;-69
2022/10/06 00:06:37;;;;;;;6.25;1.58;;;13.30;99.90;;;;;;5056332;28;20139;-69
2022/10/06 00:09:03;;;;;;;5.43;1.67;;;13.30;99.90;;;;;;5077192;28;20047;-68
2022/10/06 00:11:29;;;;;;;3.83;1.25;;;13.30;99.90;;;;;;5055943;28;20488;-69
2022/10/06 00:13:54;;;;;;;3.88;1.20;;;13.30;99.90;;;;;;5072722;28;20394;-68
2022/10/06 00:16:21;;;;;;;5.22;1.60;;;13.20;99.90;;;;;;5072566;28;20036;-68
2022/10/06 00:18:47;;;;;;;5.05;1.48;;;13.20;99.90;;;;;;5055339;28;20032;-68
2022/10/06 00:21:13;;;;;;;5.05;1.40;;;13.20;99.90;;;;;;5056671;28;20505;-68
2022/10/06 00:23:39;;;;;;;5.25;2.00;;;13.10;99.90;;;;;;5109741;28;20112;-69
2022/10/06 00:26:09;;;;;;;5.50;1.58;;;13.10;99.90;;;;;;5091949;28;20377;-69
2022/10/06 00:28:35;;;;;;;9.73;1.60;;;13.10;99.90;;;;;;5063171;28;20455;-68
2022/10/06 00:31:01;;;;;;;3.67;1.42;;;13.10;99.90;;;;;;5055799;28;20070;-68
2022/10/06 00:33:27;;;;;;;5.47;1.40;;;13.10;99.90;;;;;;5055953;28;20089;-69
2022/10/06 00:35:57;;;;;;;7.22;1.70;;;13.10;99.90;;;;;;5072302;28;20040;-68
2022/10/06 00:38:23;;;;;;;3.92;1.38;;;13.10;99.90;;;;;;5071070;28;20529;-67
2022/10/06 00:40:50;;;;;;;9.10;1.60;;;13.00;99.90;;;;;;5052524;28;20025;-68
2022/10/06 00:43:38;;;;;;;6.70;1.73;;;13.00;99.90;;;;;;5068777;28;20478;-68
2022/10/06 00:46:08;;;;;;;6.43;1.50;;;13.00;99.90;;;;;;5080752;28;20037;-68
2022/10/06 00:48:34;;;;;;;5.90;1.73;;;13.00;99.90;;;;;;5069802;28;20429;-68
2022/10/06 00:51:00;;;;;;;4.80;1.45;;;12.90;99.90;;;;;;5071195;28;20514;-68
2022/10/06 00:53:29;;;;;;;4.50;1.40;;;12.90;99.90;;;;;;5088267;28;20404;-68
2022/10/06 00:55:56;;;;;;;3.53;1.52;;;12.90;99.90;;;;;;5087695;28;20591;-68
2022/10/06 00:58:22;;;;;;;8.45;1.75;;;12.90;99.90;;;;;;5059154;28;20044;-68
2022/10/06 01:00:53;;;;;;;5.38;1.42;;;12.90;99.90;;;;;;5035822;28;20112;-68
2022/10/06 01:03:38;;;;;;;4.18;1.38;;;12.90;99.90;;;;;;5052048;28;20071;-68
2022/10/06 01:06:04;;;;;;;4.65;1.40;;;12.90;99.90;;;;;;5086086;28;20434;-68
2022/10/06 01:08:31;;;;;;;7.20;1.42;;;12.90;99.90;;;;;;5062280;28;20048;-68
2022/10/06 01:10:56;;;;;;;6.10;1.70;;;12.90;99.90;;;;;;5069721;28;20414;-68
2022/10/06 01:13:23;;;;;;;5.90;1.30;;;12.90;99.90;;;;;;5068435;28;20032;-68
2022/10/06 01:16:21;;;;;;;6.22;1.42;;;12.80;99.90;;;;;;5068761;28;20470;-69
2022/10/06 01:18:48;;;;;;;4.70;1.40;;;12.80;99.90;;;;;;5061039;28;20037;-68
2022/10/06 01:21:21;;;;;;;8.68;2.08;;;12.70;99.90;;;;;;5068582;28;20529;-69
2022/10/06 01:23:48;;;;;;;8.10;1.92;;;12.70;99.90;;;;;;5068496;28;20037;-68
2022/10/06 01:26:17;;;;;;;5.78;1.83;;;12.70;99.90;;;;;;5068746;28;20040;-68
2022/10/06 01:28:42;;;;;;;7.22;1.75;;;12.70;99.90;;;;;;5084061;28;20404;-68
2022/10/06 01:31:09;;;;;;;3.97;1.48;;;12.70;99.90;;;;;;5077268;28;20048;-68
2022/10/06 01:33:34;;;;;;;7.00;1.67;;;12.60;99.90;;;;;;5091586;28;20074;-68
2022/10/06 01:36:00;;;;;;;3.97;1.40;;;12.60;99.90;;;;;;5058407;28;20421;-68
2022/10/06 01:38:26;;;;;;;6.03;1.77;;;12.60;99.90;;;;;;5077583;28;20051;-69
2022/10/06 01:40:52;;;;;;;8.35;1.80;;;12.50;99.90;;;;;;5094513;28;20040;-68
2022/10/06 01:43:19;;;;;;;13.88;2.33;;;12.50;99.90;;;;;;5077617;28;20027;-68
2022/10/06 01:45:44;;;;;;;7.40;1.85;;;12.50;99.90;;;;;;5094045;28;20127;-69
2022/10/06 01:48:10;;;;;;;8.43;2.10;;;12.40;99.90;;;;;;5060764;28;20122;-69
2022/10/06 01:50:36;;;;;;;5.40;1.65;;;12.40;99.90;;;;;;5060859;28;20123;-69
2022/10/06 01:53:02;;;;;;;8.43;1.90;;;12.40;99.90;;;;;;5060654;28;20484;-69
2022/10/06 01:55:27;;;;;;;6.82;1.77;;;12.30;99.90;;;;;;5078213;28;20111;-69
2022/10/06 01:57:53;;;;;;;9.30;1.92;;;12.30;99.90;;;;;;5102930;28;20116;-68
2022/10/06 02:00:19;;;;;;;5.28;2.03;;;12.30;99.90;;;;;;5084960;28;20028;-68
2022/10/06 02:02:45;;;;;;;7.97;1.65;;;12.30;99.90;;;;;;5072670;28;20032;-69
2022/10/06 02:05:13;;;;;;;8.80;2.40;;;12.30;99.90;;;;;;5041754;28;20469;-68
2022/10/06 02:07:39;;;;;;;9.13;2.25;;;12.30;99.90;;;;;;5074654;28;20044;-68
2022/10/06 02:10:05;;;;;;;5.35;1.60;;;12.30;99.90;;;;;;5058265;28;20037;-68
2022/10/06 02:12:31;;;;;;;7.25;2.15;;;12.30;99.90;;;;;;5092942;28;20036;-68
2022/10/06 02:14:58;;;;;;;7.10;1.80;;;12.20;99.90;;;;;;5074912;28;20044;-68
2022/10/06 02:17:24;;;;;;;7.70;1.70;;;12.20;99.90;;;;;;5077507;28;20064;-68
2022/10/06 02:19:49;;;;;;;10.55;3.00;;;12.20;99.90;;;;;;5107310;28;20474;-68
2022/10/06 02:22:16;;;;;;;7.45;2.05;;;12.20;99.90;;;;;;5086432;28;20115;-68
2022/10/06 02:24:41;;;;;;;7.72;1.77;;;12.20;99.90;;;;;;5058856;28;20036;-68
2022/10/06 02:27:07;;;;;;;6.22;2.00;;;12.20;99.90;;;;;;5058064;28;20047;-68
2022/10/06 02:29:33;;;;;;;6.40;1.65;;;12.20;99.90;;;;;;5062704;28;20051;-68
2022/10/06 02:31:59;;;;;;;7.05;2.08;;;12.20;99.90;;;;;;5111736;28;20039;-68
2022/10/06 02:34:25;;;;;;;13.75;2.17;;;12.20;99.90;;;;;;5076390;28;20040;-68
2022/10/06 02:36:51;;;;;;;9.70;1.92;;;12.10;99.90;;;;;;5093249;28;20392;-69
2022/10/06 02:39:16;;;;;;;10.35;2.08;;;12.10;99.90;;;;;;5076385;28;20044;-69
2022/10/06 02:41:42;;;;;;;8.57;2.00;;;12.10;99.90;;;;;;5071459;28;20040;-68
2022/10/06 02:44:08;;;;;;;10.35;2.85;;;12.10;99.90;;;;;;5060828;28;20035;-68
2022/10/06 02:46:34;;;;;;;6.65;1.73;;;12.00;99.90;;;;;;5093290;28;20044;-68
2022/10/06 02:49:01;;;;;;;6.85;1.77;;;12.00;99.90;;;;;;5093246;28;20508;-69
2022/10/06 02:51:28;;;;;;;10.82;2.15;;;11.90;99.90;;;;;;5093786;28;20119;-68
2022/10/06 02:53:54;;;;;;;5.20;2.00;;;11.90;99.90;;;;;;5057596;28;20040;-68
2022/10/06 02:56:22;;;;;;;14.15;2.15;;;11.90;99.90;;;;;;5106006;28;20039;-69
2022/10/06 02:58:50;;;;;;;7.90;2.20;;;11.80;99.90;;;;;;5071780;28;20405;-68
2022/10/06 03:01:22;;;;;;;10.10;1.85;;;11.80;99.90;;;;;;5074350;28;20040;-68
2022/10/06 03:03:49;;;;;;;7.53;2.38;;;11.80;99.90;;;;;;5091748;28;20039;-68
2022/10/06 03:06:20;;;;;;;7.75;1.98;;;11.80;99.90;;;;;;5073748;28;20044;-68
2022/10/06 03:09:01;;;;;;;9.88;2.03;;;11.70;99.90;;;;;;5057066;28;20046;-69
2022/10/06 03:11:29;;;;;;;8.65;2.33;;;11.70;99.90;;;;;;5092607;28;20515;-68
2022/10/06 03:13:56;;;;;;;8.13;2.30;;;11.70;99.90;;;;;;5111093;28;20548;-68
2022/10/06 03:16:26;;;;;;;6.88;1.77;;;11.70;99.90;;;;;;5092595;28;20335;-69
2022/10/06 03:18:53;;;;;;;9.50;2.08;;;11.70;99.90;;;;;;5071308;28;20408;-68
2022/10/06 03:21:24;;;;;;;13.23;2.45;;;11.70;99.90;;;;;;5073387;28;20044;-68
2022/10/06 03:23:52;;;;;;;10.90;2.15;;;11.70;99.90;;;;;;5073744;28;20031;-68
2022/10/06 03:26:20;;;;;;;9.63;2.22;;;11.70;99.90;;;;;;5073450;28;20028;-68
2022/10/06 03:28:46;;;;;;;6.80;2.25;;;11.70;99.90;;;;;;5073748;28;20366;-68
2022/10/06 03:31:13;;;;;;;9.50;2.33;;;11.60;99.90;;;;;;5056806;28;20047;-68
2022/10/06 03:33:39;;;;;;;8.20;2.08;;;11.60;99.90;;;;;;5073326;28;20052;-68
2022/10/06 03:36:09;;;;;;;7.53;2.40;;;11.60;99.90;;;;;;5091631;28;20086;-68
2022/10/06 03:38:35;;;;;;;8.90;2.10;;;11.60;99.90;;;;;;5071036;28;20056;-68
2022/10/06 03:41:10;;;;;;;8.00;2.35;;;11.50;99.90;;;;;;5073297;28;20048;-68
2022/10/06 03:43:38;;;;;;;8.13;2.35;;;11.50;99.90;;;;;;5073141;28;20048;-69
2022/10/06 03:46:05;;;;;;;9.52;2.10;;;11.60;99.90;;;;;;5091846;28;20038;-68
2022/10/06 03:48:33;;;;;;;11.38;2.83;;;11.50;99.90;;;;;;5080529;28;20500;-68
2022/10/06 03:51:03;;;;;;;6.13;1.60;;;11.50;99.90;;;;;;5056635;28;20048;-69
2022/10/06 03:53:29;;;;;;;10.20;2.38;;;11.50;99.90;;;;;;5058280;28;20139;-68
2022/10/06 03:56:11;;;;;;;8.55;1.98;;;11.40;99.90;;;;;;5056389;28;20112;-68
2022/10/06 03:58:39;;;;;;;15.90;2.58;;;11.40;99.90;;;;;;5088868;28;20043;-68
2022/10/06 04:01:16;;;;;;;8.75;2.03;;;11.40;99.90;;;;;;5091243;28;20059;-69
2022/10/06 04:03:42;;;;;;;14.73;2.78;;;11.40;99.90;;;;;;5072979;28;20437;-68
2022/10/06 04:06:12;;;;;;;10.75;2.15;;;11.30;99.90;;;;;;5056017;28;20040;-68
2022/10/06 04:08:39;;;;;;;14.27;2.05;;;11.30;99.90;;;;;;5072782;28;20066;-68
2022/10/06 04:11:16;;;;;;;10.48;2.70;;;11.30;99.90;;;;;;5080456;28;20436;-69
2022/10/06 04:13:44;;;;;;;7.80;2.05;;;11.20;99.90;;;;;;5091339;28;20048;-69
2022/10/06 04:16:18;;;;;;;8.45;2.65;;;11.10;99.90;;;;;;5076953;28;20043;-68
2022/10/06 04:18:47;;;;;;;10.65;2.30;;;11.10;99.90;;;;;;5055536;28;20052;-68
2022/10/06 04:21:13;;;;;;;7.68;2.50;;;11.10;99.90;;;;;;5072610;28;20097;-68
2022/10/06 04:23:39;;;;;;;7.78;1.90;;;11.10;99.90;;;;;;5081155;28;20036;-68
2022/10/06 04:26:11;;;;;;;12.50;2.55;;;11.10;99.90;;;;;;5092030;28;20035;-69
2022/10/06 04:28:38;;;;;;;11.30;2.92;;;11.10;99.90;;;;;;5088016;28;20048;-68
2022/10/06 04:31:16;;;;;;;7.20;2.20;;;11.00;99.90;;;;;;5072757;28;20047;-68
2022/10/06 04:33:42;;;;;;;9.40;2.55;;;11.00;99.90;;;;;;5072621;28;20043;-69
2022/10/06 04:36:11;;;;;;;9.07;2.45;;;11.00;99.90;;;;;;5056144;28;20068;-69
2022/10/06 04:38:37;;;;;;;8.52;2.30;;;11.00;99.90;;;;;;5035840;28;20123;-69
2022/10/06 04:41:12;;;;;;;8.88;1.92;;;10.90;99.90;;;;;;5052390;28;20057;-68
2022/10/06 04:43:38;;;;;;;13.70;2.42;;;10.90;99.90;;;;;;5068983;28;20041;-68
2022/10/06 04:46:04;;;;;;;6.57;2.03;;;10.90;99.90;;;;;;5052801;28;20386;-69
2022/10/06 04:48:31;;;;;;;9.35;2.63;;;10.90;99.90;;;;;;5036025;28;20482;-69
2022/10/06 04:51:02;;;;;;;6.65;1.90;;;10.80;99.90;;;;;;5084864;28;20039;-69
2022/10/06 04:53:29;;;;;;;12.25;2.40;;;10.70;99.90;;;;;;5088133;28;20046;-68
2022/10/06 04:56:03;;;;;;;10.05;2.25;;;10.70;99.90;;;;;;5088272;28;20040;-68
2022/10/06 04:58:33;;;;;;;6.88;2.55;;;10.70;99.90;;;;;;5068741;28;20040;-69
2022/10/06 05:01:00;;;;;;;8.35;2.40;;;10.70;99.90;;;;;;5071708;28;20036;-67
2022/10/06 05:03:27;;;;;;;9.63;2.50;;;10.60;99.90;;;;;;5082862;28;20500;-68
2022/10/06 05:06:05;;;;;;;7.95;2.10;;;10.60;99.90;;;;;;5063434;28;20028;-68
2022/10/06 05:08:32;;;;;;;10.25;2.10;;;10.60;99.90;;;;;;5077615;28;20046;-69
2022/10/06 05:11:02;;;;;;;10.43;2.97;;;10.60;99.90;;;;;;5074166;28;20072;-68
2022/10/06 05:13:28;;;;;;;15.45;2.78;;;10.60;99.90;;;;;;5072686;28;20362;-67
2022/10/06 05:15:59;;;;;;;8.90;2.28;;;10.30;99.90;;;;;;5099225;28;20032;-68
2022/10/06 05:18:26;;;;;;;7.95;2.33;;;10.50;99.90;;;;;;5089870;28;20072;-68
2022/10/06 05:20:56;;;;;;;15.93;2.70;;;10.50;99.90;;;;;;5091381;28;20040;-68
2022/10/06 05:23:23;;;;;;;7.65;2.40;;;10.50;99.90;;;;;;5091625;28;20040;-69
2022/10/06 05:25:51;;;;;;;7.30;2.47;;;10.50;99.90;;;;;;5042153;28;20028;-69
2022/10/06 05:28:17;;;;;;;11.93;3.53;;;10.40;99.90;;;;;;5039159;28;20036;-68
2022/10/06 05:30:53;;;;;;;12.50;2.50;;;10.40;99.90;;;;;;5072602;28;20123;-68
2022/10/06 05:33:18;;;;;;;13.82;2.42;;;10.40;99.90;;;;;;5055435;28;20048;-67
2022/10/06 05:35:56;;;;;;;16.35;3.22;;;10.30;99.90;;;;;;5077480;28;20055;-68
2022/10/06 05:38:22;;;;;;;12.95;2.60;;;10.30;99.90;;;;;;5094602;28;20050;-69
2022/10/06 05:40:49;;;;;;;9.60;2.30;;;10.30;99.90;;;;;;5113359;28;20112;-69
2022/10/06 05:43:16;;;;;;;10.43;2.53;;;10.30;99.90;;;;;;5077967;28;20039;-69
2022/10/06 05:45:53;;;;;;;11.02;2.45;;;10.30;99.90;;;;;;5094879;28;20074;-68
2022/10/06 05:48:19;;;;;;;9.77;2.83;;;10.30;99.90;;;;;;5094869;28;20047;-69
2022/10/06 05:50:44;;;;;;;12.57;2.30;;;10.30;99.90;;;;;;5063836;28;20374;-69
2022/10/06 05:53:11;;;;;;;11.02;3.53;;;10.30;99.90;;;;;;5093528;28;20051;-68
2022/10/06 05:55:37;;;;;;;9.57;1.95;;;10.30;99.90;;;;;;5080601;28;20035;-68
2022/10/06 05:58:02;;;;;;;16.42;2.70;;;10.30;99.90;;;;;;5086376;28;20040;-68
2022/10/06 06:00:29;;;;;;;9.77;2.40;;;10.30;99.90;;;;;;5075695;28;20497;-69
2022/10/06 06:02:55;;;;;;;11.65;3.80;;;10.20;99.90;;;;;;5061146;28;20096;-68
2022/10/06 06:05:20;;;;;;;8.70;2.28;;;10.30;99.90;;;;;;5060479;28;20035;-69
2022/10/06 06:07:46;;;;;;;11.77;3.00;;;10.20;99.90;;;;;;5093442;28;20046;-68
2022/10/06 06:10:12;;;;;;;11.50;2.90;;;10.20;99.90;;;;;;5077131;28;20066;-68
2022/10/06 06:12:38;;;;;;;10.80;2.47;;;10.20;99.90;;;;;;5093953;28;20476;-69
2022/10/06 06:17:49;;;;;;;11.10;2.28;;;10.20;99.90;;;;;;5078887;28;20051;-68
2022/10/06 06:20:14;;;;;;;8.27;2.13;;;10.20;99.90;;;;;;5093849;28;20044;-68
2022/10/06 06:22:40;;;;;;;15.27;2.60;;;10.20;99.90;;;;;;5077170;28;20043;-68
2022/10/06 06:25:06;;;;;;;7.10;2.58;;;10.20;99.90;;;;;;5093710;28;20090;-68
2022/10/06 06:27:32;;;;;;;5.88;2.20;;;10.20;99.90;;;;;;5074938;28;20028;-68
2022/10/06 06:29:58;;;;;;;12.82;2.40;;;10.20;99.90;;;;;;5043883;28;20063;-69
2022/10/06 06:32:25;;;;;;;13.25;2.50;;;10.20;99.90;;;;;;5075064;28;20072;-68
2022/10/06 06:34:51;;;;;;;14.15;2.78;;;10.20;99.90;;;;;;5074735;28;20105;-68
2022/10/06 06:37:17;;;;;;;11.30;1.95;;;10.30;99.90;;;;;;5092405;28;20029;-68
2022/10/06 06:39:43;;;;;;;7.57;2.85;;;10.30;99.90;;;;;;5074879;28;20048;-68
2022/10/06 06:42:09;;;;;;;9.50;2.05;;;10.30;99.90;;;;;;5074542;28;20602;-69
2022/10/06 06:44:35;;;;;;;7.65;2.20;;;10.40;99.90;;;;;;5089625;28;20044;-70
2022/10/06 06:47:01;;;;;;;12.43;2.67;;;10.40;99.90;;;;;;5077028;28;20032;-68
2022/10/06 06:49:26;;;;;;;9.18;2.88;;;10.40;99.90;;;;;;5071768;28;20388;-70
2022/10/06 06:51:53;;;;;;;7.55;2.20;;;10.40;99.90;;;;;;5093314;28;20032;-68
2022/10/06 06:54:19;;;;;;;8.65;2.50;;;10.50;99.90;;;;;;5075169;28;20050;-69
2022/10/06 06:56:47;;;;;;;20.85;3.33;;;10.50;99.90;;;;;;5074494;28;20189;-70
2022/10/06 06:59:13;;;;;;;11.68;2.80;;;10.50;99.90;;;;;;5088815;28;20028;-69
2022/10/06 07:01:44;;;;;;;10.60;2.40;;;10.50;99.90;;;;;;5085126;28;20434;-68
2022/10/06 07:04:11;;;;;;;12.02;2.55;;;10.60;99.90;;;;;;5092802;28;20437;-68
2022/10/06 07:06:39;;;;;;;10.02;2.30;;;10.60;99.90;;;;;;5093516;28;20040;-69
2022/10/06 07:09:05;;;;;;;9.35;2.03;;;10.70;99.90;;;;;;5074347;28;20097;-68
2022/10/06 07:11:39;;;;;;;11.75;3.17;;;10.70;99.90;;;;;;5093350;28;20484;-69
2022/10/06 07:14:07;;;;;;;5.47;1.92;;;10.70;99.90;;;;;;5093157;28;20043;-69
2022/10/06 07:25:07;;;;;;;14.02;2.85;;;10.90;99.90;;;;;;5092562;28;20547;-69
2022/10/06 07:27:41;;;;;;;8.90;2.75;;;10.90;99.90;;;;;;5110802;28;20483;-68
2022/10/06 07:30:18;;;;;;;13.35;2.85;;;11.00;99.90;;;;;;5058745;28;20067;-68
2022/10/06 07:32:49;;;;;;;11.73;2.60;;;11.00;99.90;;;;;;5057294;28;20120;-69
2022/10/06 07:35:16;;;;;;;8.93;2.80;;;11.10;99.90;;;;;;5073483;28;20086;-68
2022/10/06 07:37:42;;;;;;;10.32;2.60;;;11.10;99.90;;;;;;5072844;28;20417;-68
2022/10/06 07:40:09;;;;;;;10.18;2.85;;;11.20;99.90;;;;;;5046517;28;20059;-68
2022/10/06 07:42:48;;;;;;;11.77;2.55;;;11.20;99.90;;;;;;5058892;28;20036;-68
2022/10/06 07:45:37;;;;;;;13.38;3.00;;;11.20;99.90;;;;;;5076991;28;20123;-68
2022/10/06 07:48:23;;;;;;;8.77;2.38;;;11.30;99.90;;;;;;5092325;28;20039;-68
2022/10/06 07:50:51;;;;;;;10.52;2.78;;;11.40;99.90;;;;;;5073806;28;20051;-69
2022/10/06 07:53:18;;;;;;;9.95;2.65;;;11.40;99.90;;;;;;5092559;28;20062;-70
2022/10/06 07:56:06;;;;;;;13.27;3.22;;;11.50;99.90;;;;;;5088635;28;20571;-67
2022/10/06 07:58:33;;;;;;;13.77;3.00;;;11.50;99.90;;;;;;5091899;28;20046;-67
2022/10/06 08:01:07;;;;;;;13.75;2.30;;;12.20;99.90;;;;;;5074769;28;20051;-67
2022/10/06 08:03:33;;;;;;;8.80;2.70;;;11.70;99.90;;;;;;5092067;28;20515;-67
2022/10/06 08:06:00;;;;;;;9.85;2.20;;;11.80;99.90;;;;;;5058724;28;20032;-67
2022/10/06 08:08:29;;;;;;;11.32;2.30;;;11.80;99.90;;;;;;5065018;28;20044;-67
2022/10/06 08:10:56;;;;;;;10.45;2.47;;;11.90;99.90;;;;;;5074404;28;20048;-67
2022/10/06 08:13:22;;;;;;;12.25;2.63;;;12.00;99.90;;;;;;5074705;28;20039;-67
2022/10/06 08:15:49;;;;;;;14.77;2.45;;;12.10;99.90;;;;;;5074907;28;20043;-67
2022/10/06 08:18:16;;;;;;;23.27;2.67;;;12.10;99.90;;;;;;5109690;28;20496;-67
2022/10/06 08:20:47;;;;;;;14.63;2.45;;;12.20;99.90;;;;;;5075399;28;20109;-67
2022/10/06 08:23:13;;;;;;;8.90;2.25;;;12.30;99.90;;;;;;5090606;28;20036;-67
2022/10/06 08:25:42;;;;;;;8.25;2.50;;;12.40;99.90;;;;;;5055841;28;20127;-68
2022/10/06 08:28:09;;;;;;;8.43;2.30;;;12.40;99.90;;;;;;5055786;28;20036;-68
2022/10/06 08:30:35;;;;;;;11.70;2.60;;;12.60;99.90;;;;;;5089222;28;20054;-67
2022/10/06 08:33:02;;;;;;;9.27;2.60;;;12.70;99.90;;;;;;5109513;28;20499;-68
2022/10/06 08:35:30;;;;;;;13.43;3.10;;;12.90;99.90;;;;;;5058426;28;20049;-67
2022/10/06 08:37:56;;;;;;;8.45;2.00;;;13.20;99.90;;;;;;5091114;28;20052;-67
2022/10/06 08:40:23;;;;;;;14.93;2.60;;;13.60;99.90;;;;;;5077753;28;20039;-68
2022/10/06 08:42:52;;;;;;;13.85;2.65;;;14.00;99.90;;;;;;5098162;28;20075;-67
2022/10/06 08:45:25;;;;;;;12.75;3.03;;;14.10;99.90;;;;;;5097891;28;20507;-68
2022/10/06 08:48:09;;;;;;;12.48;2.90;;;14.20;99.90;;;;;;5097854;28;20091;-67
2022/10/06 08:50:49;;;;;;;10.18;2.45;;;14.20;99.90;;;;;;5097797;28;20388;-67
2022/10/06 08:53:49;;;;;;;9.27;2.20;;;14.30;99.90;;;;;;5081333;28;20048;-68
2022/10/06 08:56:56;;;;;;;9.35;2.40;;;14.30;99.90;;;;;;5078603;28;20492;-68
2022/10/06 08:59:22;;;;;;;11.57;2.60;;;14.40;99.90;;;;;;5070092;28;20059;-67
2022/10/06 09:01:50;;;;;;;10.60;2.63;;;14.50;99.90;;;;;;5080771;28;20031;-67
2022/10/06 09:04:29;;;;;;;9.45;2.50;;;14.50;99.90;;;;;;5116051;28;20036;-67
2022/10/06 09:07:06;;;;;;;11.13;2.42;;;14.60;99.90;;;;;;5078922;28;20399;-66
2022/10/06 09:10:07;;;;;;;11.57;2.45;;;14.70;99.90;;;;;;5078678;28;20396;-67
2022/10/06 09:12:56;;;;;;;13.02;2.88;;;14.80;99.90;;;;;;5078437;28;20040;-67
2022/10/06 09:15:45;;;;;;;16.33;3.35;;;14.80;99.90;;;;;;5095759;28;20543;-68
2022/10/06 09:18:25;;;;;;;9.07;2.65;;;14.90;99.90;;;;;;5097679;28;20036;-67
2022/10/06 09:20:53;;;;;;;10.95;2.55;;;15.00;99.90;;;;;;5080742;28;20031;-68
2022/10/06 09:23:46;;;;;;;7.30;2.08;;;15.00;99.90;;;;;;5115604;28;20035;-68
2022/10/06 09:26:19;;;;;;;11.60;1.92;;;15.10;99.90;;;;;;5096378;28;20036;-68
2022/10/06 09:28:45;;;;;;;8.02;2.10;;;15.20;99.90;;;;;;5096529;28;20047;-68
2022/10/06 09:31:25;;;;;;;8.75;2.22;;;15.30;99.90;;;;;;5080972;28;20073;-69
2022/10/06 09:33:58;;;;;;;5.88;2.00;;;15.50;99.90;;;;;;5097540;28;20078;-69
2022/10/06 09:36:24;;;;;;;10.15;2.67;;;15.70;99.90;;;;;;5105163;28;20042;-68
2022/10/06 09:38:58;;;;;;;15.65;2.80;;;15.70;99.90;;;;;;5088394;28;20044;-68
2022/10/06 09:41:37;;;;;;;7.30;1.90;;;15.60;99.90;;;;;;5078536;28;20029;-68
2022/10/06 09:44:18;;;;;;;12.68;2.40;;;15.60;99.90;;;;;;5076231;28;20071;-68
2022/10/06 09:46:44;;;;;;;11.70;2.53;;;15.60;99.90;;;;;;5075225;28;20083;-69
2022/10/06 09:49:15;;;;;;;10.00;2.65;;;15.60;99.90;;;;;;5074788;28;20454;-69
2022/10/06 09:51:55;;;;;;;10.15;1.90;;;15.60;99.90;;;;;;5073088;28;20501;-69
2022/10/06 09:54:23;;;;;;;9.30;2.22;;;15.40;99.90;;;;;;5071658;28;20060;-69
2022/10/06 09:56:49;;;;;;;11.48;2.50;;;15.50;99.90;;;;;;5055154;28;20559;-69
2022/10/06 09:59:33;;;;;;;10.45;2.55;;;15.50;99.90;;;;;;5071741;28;20066;-69
2022/10/06 10:02:00;;;;;;;10.68;2.70;;;15.50;99.90;;;;;;5090048;28;20385;-69
2022/10/06 10:04:29;;;;;;;13.27;2.47;;;15.50;99.90;;;;;;5091758;28;20460;-69
2022/10/06 10:07:23;;;;;;;10.98;2.22;;;15.30;99.90;;;;;;5080078;28;20041;-69
2022/10/06 10:09:54;;;;;;;5.63;2.20;;;15.30;99.90;;;;;;5071405;28;20119;-69
2022/10/06 10:12:23;;;;;;;8.68;1.98;;;15.20;99.90;;;;;;5088230;28;20076;-68
2022/10/06 10:14:50;;;;;;;9.95;2.40;;;15.40;99.90;;;;;;5071446;28;20143;-68
2022/10/06 10:17:21;;;;;;;8.82;2.20;;;15.60;99.90;;;;;;5071093;28;20552;-69
2022/10/06 10:19:52;;;;;;;9.23;2.08;;;15.90;99.90;;;;;;5071771;28;20110;-69
2022/10/06 10:22:39;;;;;;;10.27;2.22;;;16.00;99.90;;;;;;5071003;28;20032;-69
2022/10/06 10:25:28;;;;;;;11.57;2.33;;;16.00;99.90;;;;;;5072450;28;20048;-68
2022/10/06 10:28:16;;;;;;;8.10;2.05;;;16.00;99.90;;;;;;5076943;28;20489;-68
2022/10/06 10:31:11;;;;;;;13.82;2.58;;;15.90;99.90;;;;;;5073196;28;20096;-68
2022/10/06 10:34:06;;;;;;;12.82;2.25;;;15.90;99.90;;;;;;5061830;28;20255;-69
2022/10/06 10:36:58;;;;;;;7.63;2.47;;;16.00;99.90;;;;;;5089637;28;20100;-69
2022/10/06 10:39:36;;;;;;;8.30;2.22;;;16.30;99.90;;;;;;5080423;28;20054;-68
2022/10/06 10:42:19;;;;;;;8.68;2.40;;;16.50;99.90;;;;;;5093848;28;20042;-69
2022/10/06 10:44:59;;;;;;;6.13;1.95;;;16.40;99.90;;;;;;5076482;28;20050;-69
2022/10/06 10:47:30;;;;;;;8.82;2.55;;;16.10;99.90;;;;;;5111486;28;20395;-68
2022/10/06 10:50:07;;;;;;;9.13;2.30;;;16.00;99.90;;;;;;5070511;28;20108;-69
2022/10/06 10:52:40;;;;;;;7.47;2.30;;;15.70;99.90;;;;;;5073713;28;20511;-68
2022/10/06 10:55:19;;;;;;;12.98;2.53;;;15.80;99.90;;;;;;5073676;28;20122;-69
2022/10/06 10:57:46;;;;;;;7.22;2.40;;;15.70;99.90;;;;;;5056906;28;20071;-69
2022/10/06 11:00:26;;;;;;;7.15;2.00;;;15.60;99.90;;;;;;5059795;28;20075;-69
2022/10/06 11:02:56;;;;;;;7.60;2.30;;;15.50;99.90;;;;;;5056055;28;20036;-68
2022/10/06 11:05:32;;;;;;;6.10;1.88;;;15.50;99.90;;;;;;5091811;28;20458;-69
2022/10/06 11:08:15;;;;;;;5.10;2.33;;;15.70;99.90;;;;;;5073580;28;20043;-69
2022/10/06 11:10:52;;;;;;;8.68;1.98;;;15.90;99.90;;;;;;5074046;28;20516;-69
2022/10/06 11:13:21;;;;;;;5.55;1.90;;;15.90;99.90;;;;;;5074502;28;20031;-69
2022/10/06 11:15:58;;;;;;;8.43;2.25;;;15.90;99.90;;;;;;5092410;28;20047;-69
2022/10/06 11:19:03;;;;;;;5.93;2.13;;;16.10;99.90;;;;;;5092203;28;20043;-68
2022/10/06 11:21:41;;;;;;;11.82;2.60;;;16.20;99.90;;;;;;5092290;28;20039;-68
2022/10/06 11:24:19;;;;;;;5.78;2.10;;;16.40;99.90;;;;;;5091547;28;20053;-69
2022/10/06 11:27:08;;;;;;;10.05;2.50;;;16.30;99.90;;;;;;5091307;28;20489;-68
2022/10/06 11:29:59;;;;;;;8.93;2.15;;;16.20;99.90;;;;;;5108852;28;20062;-68
2022/10/06 11:32:37;;;;;;;7.07;2.38;;;16.00;99.90;;;;;;5092064;28;20036;-68
2022/10/06 11:35:15;;;;;;;6.85;2.42;;;15.80;99.90;;;;;;5058093;28;20051;-68
2022/10/06 11:38:11;;;;;;;6.10;2.20;;;15.80;99.90;;;;;;5090676;28;20048;-68
2022/10/06 11:40:46;;;;;;;8.15;2.17;;;15.80;99.90;;;;;;5073697;28;20126;-68
2022/10/06 11:43:12;;;;;;;9.95;2.30;;;15.90;99.90;;;;;;5090834;28;20108;-68
2022/10/06 11:46:06;;;;;;;9.10;2.15;;;15.80;99.90;;;;;;5072839;28;20449;-68
2022/10/06 11:48:33;;;;;;;8.98;2.30;;;15.90;99.90;;;;;;5043673;28;20051;-68
2022/10/06 11:51:22;;;;;;;5.28;1.90;;;16.10;99.90;;;;;;5072509;28;20104;-68
2022/10/06 11:53:49;;;;;;;6.60;1.98;;;16.30;99.90;;;;;;5069367;28;20047;-68
2022/10/06 11:56:17;;;;;;;9.23;1.80;;;16.50;99.90;;;;;;5074906;28;20040;-67
2022/10/06 11:58:49;;;;;;;10.25;2.40;;;16.70;99.90;;;;;;5085155;28;20446;-68
2022/10/06 12:01:30;;;;;;;10.23;2.17;;;16.90;99.90;;;;;;5055918;28;20036;-68
2022/10/06 12:04:07;;;;;;;7.88;1.60;;;17.00;99.90;;;;;;5072499;28;20126;-68
2022/10/06 12:06:54;;;;;;;5.32;1.88;;;17.10;99.90;;;;;;5090928;28;20063;-67
2022/10/06 12:09:32;;;;;;;14.23;1.85;;;17.10;99.90;;;;;;5090932;28;20039;-68
2022/10/06 12:12:24;;;;;;;6.68;2.00;;;17.10;99.90;;;;;;5072451;28;20396;-68
2022/10/06 12:15:23;;;;;;;8.25;2.72;;;17.10;99.90;;;;;;5090041;28;20507;-68
2022/10/06 12:18:26;;;;;;;9.63;2.35;;;17.00;99.90;;;;;;5090290;28;20044;-68
2022/10/06 12:21:08;;;;;;;5.22;1.98;;;16.80;99.90;;;;;;5090467;28;20074;-69
2022/10/06 12:24:00;;;;;;;10.15;2.45;;;16.80;99.90;;;;;;5072336;28;20036;-68
2022/10/06 12:26:32;;;;;;;6.28;1.90;;;17.00;99.90;;;;;;5024580;28;20096;-68
2022/10/06 12:29:28;;;;;;;8.68;2.22;;;17.20;99.90;;;;;;5091290;28;20035;-68
2022/10/06 12:32:07;;;;;;;4.68;1.60;;;17.20;99.90;;;;;;5041720;28;20048;-69
2022/10/06 12:34:53;;;;;;;5.80;2.00;;;17.20;99.90;;;;;;5072242;28;20496;-69
2022/10/06 12:37:28;;;;;;;16.55;2.40;;;17.00;99.90;;;;;;5072343;28;20055;-69
2022/10/06 12:40:34;;;;;;;6.50;2.00;;;16.90;99.90;;;;;;5082278;28;20042;-69
2022/10/06 12:43:18;;;;;;;7.03;1.83;;;16.90;99.90;;;;;;5091202;28;20085;-69
2022/10/06 12:45:58;;;;;;;4.15;1.70;;;17.10;99.90;;;;;;5091141;28;20564;-68
2022/10/06 12:48:40;;;;;;;7.15;1.67;;;17.20;99.90;;;;;;5109239;28;20625;-69
2022/10/06 12:51:21;;;;;;;6.07;1.65;;;17.30;99.90;;;;;;5072071;28;20536;-69
2022/10/06 12:53:57;;;;;;;8.15;2.03;;;17.30;99.90;;;;;;5072093;28;20040;-69
2022/10/06 12:56:55;;;;;;;6.13;1.50;;;17.40;99.90;;;;;;5072341;28;20044;-70
2022/10/06 12:59:21;;;;;;;7.57;2.10;;;17.30;99.90;;;;;;5072083;28;20039;-68
2022/10/06 13:01:50;;;;;;;6.20;2.38;;;17.30;99.90;;;;;;5090221;28;20040;-69
2022/10/06 13:04:35;;;;;;;5.90;1.90;;;17.40;99.90;;;;;;5054994;28;20488;-69
2022/10/06 13:07:07;;;;;;;4.38;1.50;;;17.30;99.90;;;;;;5077430;28;20081;-68
2022/10/06 13:09:33;;;;;;;5.22;1.50;;;17.40;99.90;;;;;;5077024;28;20051;-69
2022/10/06 13:12:25;;;;;;;6.05;1.88;;;17.40;99.90;;;;;;5071786;28;20036;-69
2022/10/06 13:15:27;;;;;;;8.52;1.77;;;17.40;99.90;;;;;;5072307;28;20392;-69
2022/10/06 13:17:58;;;;;;;4.30;1.70;;;17.60;99.90;;;;;;5101778;28;20047;-68
2022/10/06 13:20:36;;;;;;;5.07;1.48;;;17.70;99.90;;;;;;5089666;28;20496;-69